createdAt,value
2019-01-23T00:02:24.247Z,37.72
2019-01-23T00:04:52.347Z,37.72
2019-01-23T00:07:21.461Z,37.81
2019-01-23T00:09:49.577Z,37.82
2019-01-23T00:12:18.470Z,37.48
2019-01-23T00:14:46.489Z,37.17
2019-01-23T00:17:14.037Z,36.92
2019-01-23T00:19:41.901Z,36.47
2019-01-23T00:22:10.078Z,36.39
2019-01-23T00:24:37.873Z,36.39
2019-01-23T00:27:05.670Z,36.24
2019-01-23T00:29:33.999Z,36.24
2019-01-23T00:32:01.999Z,37.14
2019-01-23T00:34:30.038Z,37.24
2019-01-23T00:36:57.982Z,37.42
2019-01-23T00:39:26.007Z,37.29
2019-01-23T00:41:53.548Z,37.34
2019-01-23T00:44:21.045Z,37.75
2019-01-23T00:46:48.842Z,37.53
2019-01-23T00:49:17.803Z,37.31
2019-01-23T00:51:46.792Z,37.31
2019-01-23T00:54:15.899Z,37.70
2019-01-23T00:56:45.799Z,36.98
2019-01-23T00:59:14.828Z,36.98
2019-01-23T01:01:44.800Z,36.80
2019-01-23T01:04:13.825Z,36.25
2019-01-23T01:06:42.880Z,36.46
2019-01-23T01:09:11.881Z,37.09
2019-01-23T01:11:40.816Z,37.28
2019-01-23T01:14:09.953Z,37.28
2019-01-23T01:16:39.921Z,37.36
2019-01-23T01:19:09.878Z,37.57
2019-01-23T01:21:38.958Z,37.37
2019-01-23T01:24:07.922Z,37.31
2019-01-23T01:26:37.917Z,37.58
2019-01-23T01:29:08.919Z,37.14
2019-01-23T01:31:39.403Z,37.14
2019-01-23T01:34:09.886Z,37.07
2019-01-23T01:36:39.870Z,36.51
2019-01-23T01:39:09.813Z,36.26
2019-01-23T01:41:38.810Z,36.26
2019-01-23T01:44:07.826Z,35.66
2019-01-23T01:46:36.819Z,36.42
2019-01-23T01:49:07.848Z,37.49
2019-01-23T01:51:36.785Z,37.16
2019-01-23T01:54:05.783Z,37.16
2019-01-23T01:56:35.852Z,37.57
2019-01-23T01:59:04.873Z,37.48
2019-01-23T02:01:34.295Z,37.37
2019-01-23T02:04:03.817Z,37.37
2019-01-23T02:06:33.727Z,37.52
2019-01-23T02:09:03.809Z,37.31
2019-01-23T02:11:32.577Z,36.95
2019-01-23T02:14:03.848Z,36.32
2019-01-23T02:16:33.070Z,36.52
2019-01-23T02:19:04.853Z,36.14
2019-01-23T02:21:33.857Z,36.14
2019-01-23T02:24:02.884Z,37.20
2019-01-23T02:27:22.836Z,37.36
2019-01-23T02:29:50.811Z,37.35
2019-01-23T02:32:18.802Z,37.35
2019-01-23T02:34:46.863Z,36.82
2019-01-23T02:37:16.101Z,37.14
2019-01-23T02:39:44.861Z,37.14
2019-01-23T02:42:12.850Z,36.24
2019-01-23T02:44:42.824Z,35.96
2019-01-23T02:47:11.653Z,37.13
2019-01-23T02:49:39.906Z,37.13
2019-01-23T02:52:09.833Z,37.41
2019-01-23T02:54:39.207Z,37.23
2019-01-23T02:57:08.822Z,37.23
2019-01-23T02:59:37.440Z,37.18
2019-01-23T03:02:06.831Z,37.18
2019-01-23T03:04:34.912Z,37.51
2019-01-23T03:07:03.832Z,37.31
2019-01-23T03:09:31.973Z,37.31
2019-01-23T03:12:02.351Z,36.98
2019-01-23T03:14:31.389Z,36.98
2019-01-23T03:17:00.831Z,36.47
2019-01-23T03:19:30.792Z,36.65
2019-01-23T03:21:59.784Z,36.27
2019-01-23T03:24:28.039Z,35.96
2019-01-23T03:27:32.825Z,37.37
2019-01-23T03:30:01.342Z,37.34
2019-01-23T03:32:29.849Z,37.44
2019-01-23T03:34:59.414Z,37.44
2019-01-23T03:37:29.383Z,37.44
2019-01-23T03:39:58.627Z,37.32
2019-01-23T03:42:28.432Z,37.38
2019-01-23T03:44:58.789Z,37.32
2019-01-23T03:47:27.373Z,36.79
2019-01-23T03:49:55.682Z,36.79
2019-01-23T03:52:24.384Z,36.88
2019-01-23T03:54:55.414Z,36.88
2019-01-23T03:57:24.780Z,37.48
2019-01-23T03:59:54.834Z,37.62
2019-01-23T04:02:24.889Z,37.72
2019-01-23T04:04:54.389Z,38.03
2019-01-23T04:07:24.481Z,38.03
2019-01-23T04:09:53.862Z,37.92
2019-01-23T04:12:24.059Z,37.99
2019-01-23T04:14:54.886Z,37.72
2019-01-23T04:17:27.794Z,37.51
2019-01-23T04:19:58.849Z,36.65
2019-01-23T04:22:29.801Z,37.09
2019-01-23T04:25:00.876Z,37.09
2019-01-23T04:27:29.852Z,37.71
2019-01-23T04:29:58.905Z,37.93
2019-01-23T04:32:28.859Z,38.00
2019-01-23T04:34:58.861Z,38.21
2019-01-23T04:37:27.900Z,37.77
2019-01-23T04:39:57.802Z,38.19
2019-01-23T04:42:26.879Z,38.19
2019-01-23T04:44:55.932Z,38.32
2019-01-23T04:47:24.833Z,38.18
2019-01-23T04:49:54.879Z,38.18
2019-01-23T04:53:02.855Z,37.50
2019-01-23T04:55:32.055Z,37.50
2019-01-23T04:58:02.813Z,38.09
2019-01-23T05:00:31.910Z,38.09
2019-01-23T05:03:00.877Z,38.63
2019-01-23T05:05:29.869Z,38.49
2019-01-23T05:07:59.877Z,38.58
2019-01-23T05:10:28.830Z,38.46
2019-01-23T05:12:57.840Z,38.46
2019-01-23T05:15:26.880Z,38.44
2019-01-23T05:17:55.805Z,38.10
2019-01-23T05:20:25.784Z,38.10
2019-01-23T05:25:48.841Z,37.44
2019-01-23T05:28:17.839Z,38.43
2019-01-23T05:30:45.910Z,39.11
2019-01-23T05:33:14.032Z,39.19
2019-01-23T05:35:43.022Z,38.98
2019-01-23T05:38:12.304Z,38.76
2019-01-23T05:40:41.732Z,38.76
2019-01-23T05:43:09.828Z,39.11
2019-01-23T05:45:38.383Z,39.04
2019-01-23T05:48:06.994Z,39.19
2019-01-23T05:50:37.849Z,38.66
2019-01-23T05:53:07.852Z,38.66
2019-01-23T05:55:36.974Z,38.28
2019-01-23T05:58:06.855Z,38.10
2019-01-23T06:00:35.854Z,38.10
2019-01-23T06:03:04.839Z,37.67
2019-01-23T06:05:33.872Z,38.12
2019-01-23T06:08:03.779Z,38.83
2019-01-23T06:10:33.079Z,38.83
2019-01-23T06:13:02.859Z,39.08
2019-01-23T06:15:36.811Z,39.60
2019-01-23T06:18:05.921Z,39.60
2019-01-23T06:20:37.867Z,39.08
2019-01-23T06:23:06.877Z,39.38
2019-01-23T06:25:37.870Z,38.60
2019-01-23T06:28:06.936Z,38.02
2019-01-23T06:30:35.859Z,38.16
2019-01-23T06:33:04.875Z,38.01
2019-01-23T06:35:34.831Z,38.86
2019-01-23T06:38:03.783Z,38.86
2019-01-23T06:40:33.827Z,39.03
2019-01-23T06:43:02.837Z,38.99
2019-01-23T06:45:32.861Z,39.09
2019-01-23T06:48:01.841Z,38.81
2019-01-23T06:50:31.818Z,38.81
2019-01-23T06:53:00.636Z,38.77
2019-01-23T06:55:29.623Z,38.88
2019-01-23T06:57:58.865Z,38.89
2019-01-23T07:00:28.016Z,38.74
2019-01-23T07:02:57.757Z,38.67
2019-01-23T07:05:27.125Z,38.67
2019-01-23T07:07:56.546Z,38.51
2019-01-23T07:10:25.825Z,38.33
2019-01-23T07:12:55.734Z,38.43
2019-01-23T07:15:24.660Z,38.43
2019-01-23T07:17:54.848Z,37.97
2019-01-23T07:20:27.429Z,38.86
2019-01-23T07:22:57.362Z,38.86
2019-01-23T07:25:27.689Z,38.81
2019-01-23T07:27:58.055Z,38.47
2019-01-23T07:30:41.114Z,39.00
2019-01-23T07:33:09.832Z,39.00
2019-01-23T07:35:38.833Z,38.56
2019-01-23T07:38:07.824Z,38.56
2019-01-23T07:40:37.360Z,38.22
2019-01-23T07:43:06.814Z,38.22
2019-01-23T07:45:36.845Z,37.57
2019-01-23T07:48:05.765Z,38.04
2019-01-23T07:50:34.789Z,38.04
2019-01-23T07:53:03.772Z,38.58
2019-01-23T07:55:32.483Z,39.00
2019-01-23T07:58:02.737Z,39.28
2019-01-23T08:00:32.144Z,39.14
2019-01-23T08:03:01.811Z,38.94
2019-01-23T08:05:30.551Z,38.94
2019-01-23T08:08:00.826Z,39.20
2019-01-23T08:10:29.810Z,39.36
2019-01-23T08:12:58.814Z,38.83
2019-01-23T08:15:29.420Z,38.37
2019-01-23T08:17:58.814Z,38.14
2019-01-23T08:20:27.407Z,37.81
2019-01-23T08:22:57.419Z,37.75
2019-01-23T08:25:27.819Z,37.70
2019-01-23T08:27:56.796Z,37.99
2019-01-23T08:30:26.408Z,38.44
2019-01-23T08:32:56.490Z,38.54
2019-01-23T08:35:25.859Z,38.76
2019-01-23T08:37:54.855Z,38.30
2019-01-23T08:40:23.836Z,38.42
2019-01-23T08:42:52.133Z,38.47
2019-01-23T08:45:21.035Z,38.47
2019-01-23T08:47:51.774Z,38.30
2019-01-23T08:50:32.402Z,38.30
2019-01-23T08:53:01.371Z,38.11
2019-01-23T08:55:30.617Z,37.50
2019-01-23T08:58:00.729Z,37.43
2019-01-23T09:00:29.407Z,37.51
2019-01-23T09:02:59.032Z,37.83
2019-01-23T09:05:28.637Z,37.68
2019-01-23T09:07:58.593Z,37.68
2019-01-23T09:10:26.985Z,38.19
2019-01-23T09:12:57.845Z,38.37
2019-01-23T09:15:27.432Z,38.04
2019-01-23T09:17:57.426Z,38.04
2019-01-23T09:20:27.729Z,38.39
2019-01-23T09:22:55.825Z,38.54
2019-01-23T09:25:24.980Z,37.66
2019-01-23T09:27:54.819Z,37.34
2019-01-23T09:30:26.375Z,37.34
2019-01-23T09:33:21.745Z,37.07
2019-01-23T09:36:43.841Z,36.87
2019-01-23T09:39:54.828Z,38.56
2019-01-23T09:43:38.393Z,38.56
2019-01-23T09:47:01.853Z,36.80
2019-01-23T09:50:33.844Z,37.07
2019-01-23T09:53:29.881Z,37.07
2019-01-23T09:55:58.356Z,36.59
2019-01-23T09:58:27.745Z,36.59
2019-01-23T10:00:59.813Z,36.43
2019-01-23T10:03:27.379Z,36.29
2019-01-23T10:05:57.503Z,37.05
2019-01-23T10:08:26.751Z,37.73
2019-01-23T10:10:56.409Z,37.87
2019-01-23T10:13:25.795Z,37.97
2019-01-23T10:16:13.399Z,38.14
2019-01-23T10:18:42.923Z,38.34
2019-01-23T10:22:16.783Z,37.41
2019-01-23T10:24:44.634Z,37.65
2019-01-23T10:38:00.106Z,37.00
2019-01-23T10:40:28.829Z,36.33
2019-01-23T10:42:56.769Z,36.33
2019-01-23T10:45:24.697Z,36.93
2019-01-23T10:47:56.025Z,36.39
2019-01-23T10:50:22.882Z,37.63
2019-01-23T10:52:50.957Z,37.74
2019-01-23T10:55:19.803Z,37.82
2019-01-23T10:57:47.720Z,37.82
2019-01-23T11:00:16.808Z,37.98
2019-01-23T11:02:44.666Z,38.02
2019-01-23T11:05:17.840Z,37.99
2019-01-23T11:07:46.341Z,37.80
2019-01-23T11:10:18.761Z,37.59
2019-01-23T11:12:46.708Z,37.05
2019-01-23T11:17:23.810Z,37.09
2019-01-23T11:19:51.828Z,36.97
2019-01-23T11:22:20.846Z,36.18
2019-01-23T11:24:49.791Z,35.97
2019-01-23T11:27:18.820Z,35.97
2019-01-23T11:29:47.827Z,35.79
2019-01-23T11:32:16.803Z,36.39
2019-01-23T11:34:45.798Z,36.94
2019-01-23T11:37:15.670Z,36.70
2019-01-23T11:39:44.832Z,36.70
2019-01-23T11:42:13.496Z,36.09
2019-01-23T11:44:42.527Z,36.09
2019-01-23T11:47:11.838Z,36.68
2019-01-23T11:49:41.826Z,37.18
2019-01-23T11:52:11.451Z,36.55
2019-01-23T11:54:40.645Z,36.55
2019-01-23T11:57:10.797Z,36.23
2019-01-23T11:59:40.624Z,35.43
2019-01-23T12:02:10.000Z,35.43
2019-01-23T12:04:41.394Z,35.65
2019-01-23T12:07:10.413Z,35.65
2019-01-23T12:09:39.811Z,36.11
2019-01-23T12:12:09.407Z,36.34
2019-01-23T12:14:39.798Z,36.34
2019-01-23T12:17:09.397Z,36.45
2019-01-23T12:19:38.783Z,36.45
2019-01-23T12:22:07.747Z,36.38
2019-01-23T12:24:37.811Z,36.03
2019-01-23T12:27:07.744Z,36.03
2019-01-23T12:29:35.809Z,36.24
2019-01-23T12:32:04.721Z,35.99
2019-01-23T12:34:34.792Z,35.09
2019-01-23T12:37:07.792Z,35.09
2019-01-23T12:39:36.789Z,34.94
2019-01-23T12:42:05.352Z,35.00
2019-01-23T12:44:34.518Z,35.36
2019-01-23T12:47:04.802Z,36.06
2019-01-23T12:49:33.777Z,36.12
2019-01-23T12:52:02.613Z,36.27
2019-01-23T12:54:31.822Z,36.04
2019-01-23T12:57:00.821Z,36.26
2019-01-23T12:59:29.813Z,36.19
2019-01-23T13:01:58.795Z,36.12
2019-01-23T13:04:27.600Z,36.34
2019-01-23T13:06:55.890Z,36.31
2019-01-23T13:09:24.386Z,36.01
2019-01-23T13:11:53.769Z,35.93
2019-01-23T13:14:21.838Z,35.93
2019-01-23T13:16:50.800Z,35.40
2019-01-23T13:19:21.800Z,35.31
2019-01-23T13:21:51.796Z,35.31
2019-01-23T13:24:19.880Z,35.99
2019-01-23T13:26:48.339Z,36.10
2019-01-23T13:29:18.727Z,36.10
2019-01-23T13:31:49.287Z,36.36
2019-01-23T13:34:17.894Z,36.29
2019-01-23T13:36:47.092Z,36.26
2019-01-23T13:39:18.804Z,36.26
2019-01-23T13:41:48.390Z,36.46
2019-01-23T13:44:18.764Z,36.40
2019-01-23T13:46:47.703Z,36.25
2019-01-23T13:49:15.784Z,35.87
2019-01-23T13:51:43.861Z,35.60
2019-01-23T13:54:14.194Z,34.79
2019-01-23T13:56:43.921Z,34.79
2019-01-23T13:59:13.286Z,35.84
2019-01-23T14:01:42.874Z,35.84
2019-01-23T14:04:12.809Z,36.01
2019-01-23T14:06:41.942Z,36.01
2019-01-23T14:09:11.854Z,36.23
2019-01-23T14:11:40.357Z,36.09
2019-01-23T14:14:09.805Z,36.09
2019-01-23T14:16:38.840Z,36.29
2019-01-23T14:19:07.842Z,36.36
2019-01-23T14:21:37.814Z,36.25
2019-01-23T14:24:06.975Z,35.87
2019-01-23T14:26:37.434Z,35.47
2019-01-23T14:29:07.433Z,35.47
2019-01-23T14:31:38.376Z,35.47
2019-01-23T14:34:08.835Z,35.43
2019-01-23T14:36:38.820Z,35.80
2019-01-23T14:39:09.012Z,36.33
2019-01-23T14:41:38.945Z,36.61
2019-01-23T14:44:08.114Z,36.61
2019-01-23T14:46:39.308Z,36.58
2019-01-23T14:49:09.806Z,36.57
2019-01-23T14:51:39.778Z,36.67
2019-01-23T14:54:08.881Z,36.80
2019-01-23T14:56:37.823Z,36.54
2019-01-23T14:59:07.831Z,36.54
2019-01-23T15:01:36.837Z,36.18
2019-01-23T15:04:06.838Z,35.82
2019-01-23T15:06:36.613Z,35.82
2019-01-23T15:09:09.323Z,35.72
2019-01-23T15:11:40.869Z,36.18
2019-01-23T15:14:11.295Z,36.38
2019-01-23T15:16:41.831Z,36.38
2019-01-23T15:19:11.919Z,36.62
2019-01-23T15:21:41.372Z,36.40
2019-01-23T15:24:11.119Z,36.40
2019-01-23T15:26:41.923Z,36.76
2019-01-23T15:29:11.931Z,36.89
2019-01-23T15:31:41.869Z,36.31
2019-01-23T15:34:11.924Z,36.13
2019-01-23T15:36:42.418Z,35.51
2019-01-23T15:39:12.128Z,35.51
2019-01-23T15:41:42.767Z,35.82
2019-01-23T15:44:12.375Z,35.82
2019-01-23T15:46:42.835Z,36.43
2019-01-23T15:49:12.521Z,36.83
2019-01-23T15:51:42.882Z,36.81
2019-01-23T15:54:12.963Z,36.83
2019-01-23T15:56:43.783Z,37.07
2019-01-23T15:59:15.850Z,37.07
2019-01-23T16:01:45.780Z,37.09
2019-01-23T16:04:16.814Z,37.09
2019-01-23T16:06:47.814Z,36.81
2019-01-23T16:09:18.891Z,36.53
2019-01-23T16:11:48.863Z,36.25
2019-01-23T16:14:19.747Z,36.59
2019-01-23T16:16:52.481Z,36.48
2019-01-23T16:19:27.788Z,36.48
2019-01-23T16:21:58.475Z,36.84
2019-01-23T16:24:29.839Z,36.54
2019-01-23T16:27:01.838Z,37.12
2019-01-23T16:29:35.811Z,36.88
2019-01-23T16:32:07.413Z,36.88
2019-01-23T16:34:38.350Z,36.91
2019-01-23T16:37:09.720Z,36.95
2019-01-23T16:39:39.917Z,36.80
2019-01-23T16:42:12.800Z,36.09
2019-01-23T16:44:44.842Z,35.96
2019-01-23T16:47:15.992Z,36.16
2019-01-23T16:49:49.796Z,36.44
2019-01-23T16:52:20.939Z,36.71
2019-01-23T16:54:53.135Z,36.45
2019-01-23T16:57:24.787Z,36.65
2019-01-23T16:59:55.808Z,36.65
2019-01-23T17:02:26.817Z,36.34
2019-01-23T17:04:58.813Z,36.34
2019-01-23T17:07:28.877Z,36.57
2019-01-23T17:09:59.363Z,35.48
2019-01-23T17:12:30.914Z,35.48
2019-01-23T17:15:03.812Z,35.62
2019-01-23T17:17:34.810Z,36.33
2019-01-23T17:20:05.390Z,36.51
2019-01-23T17:22:35.826Z,36.51
2019-01-23T17:25:08.336Z,36.74
2019-01-23T17:27:38.787Z,36.74
2019-01-23T17:30:11.740Z,37.08
2019-01-23T17:32:45.782Z,37.15
2019-01-23T17:35:17.812Z,37.45
2019-01-23T17:37:47.809Z,37.13
2019-01-23T17:40:19.418Z,36.19
2019-01-23T17:42:50.859Z,36.19
2019-01-23T17:45:25.822Z,36.11
2019-01-23T17:47:57.836Z,36.11
2019-01-23T17:50:29.823Z,37.33
2019-01-23T17:53:01.902Z,37.32
2019-01-23T17:55:35.924Z,37.65
2019-01-23T17:58:09.819Z,37.65
2019-01-23T18:00:49.104Z,37.79
2019-01-23T18:03:21.975Z,37.79
2019-01-23T18:05:53.839Z,37.05
2019-01-23T18:08:24.532Z,36.64
2019-01-23T18:10:54.976Z,36.64
2019-01-23T18:13:26.849Z,36.43
2019-01-23T18:16:06.984Z,36.43
2019-01-23T18:18:40.616Z,37.45
2019-01-23T18:21:11.614Z,37.45
2019-01-23T18:23:44.928Z,37.86
2019-01-23T18:26:17.374Z,37.80
2019-01-23T18:28:49.915Z,37.80
2019-01-23T18:31:31.856Z,37.20
2019-01-23T18:34:42.879Z,36.45
2019-01-23T18:37:33.798Z,37.25
2019-01-23T18:40:49.850Z,37.25
2019-01-23T18:43:50.111Z,36.93
2019-01-23T18:47:06.960Z,36.93
2019-01-23T18:50:15.878Z,37.26
2019-01-23T18:52:49.797Z,36.62
2019-01-23T18:55:22.782Z,36.62
2019-01-23T18:57:53.812Z,36.10
2019-01-23T19:00:24.905Z,37.16
2019-01-23T19:05:38.957Z,37.25
2019-01-23T19:08:11.822Z,38.18
2019-01-23T19:10:42.374Z,38.18
2019-01-23T19:13:13.783Z,38.01
2019-01-23T19:15:46.597Z,37.52
2019-01-23T19:18:17.343Z,37.52
2019-01-23T19:20:51.066Z,37.47
2019-01-23T19:23:23.783Z,37.13
2019-01-23T19:28:09.363Z,37.17
2019-01-23T19:30:39.737Z,36.83
2019-01-23T19:33:13.505Z,37.85
2019-01-23T19:35:41.672Z,37.83
2019-01-23T19:38:11.581Z,38.08
2019-01-23T19:40:45.698Z,38.37
2019-01-23T19:43:17.841Z,38.37
2019-01-23T19:45:48.772Z,38.46
2019-01-23T19:48:18.873Z,38.46
2019-01-23T19:50:49.833Z,37.61
2019-01-23T19:53:21.128Z,37.30
2019-01-23T19:55:54.815Z,37.30
2019-01-23T19:58:25.846Z,36.74
2019-01-23T20:00:56.682Z,37.99
2019-01-23T20:03:27.801Z,37.99
2019-01-23T20:05:58.800Z,37.83
2019-01-23T20:08:29.828Z,37.94
2019-01-23T20:11:01.779Z,37.94
2019-01-23T20:13:31.819Z,38.37
2019-01-23T20:16:02.897Z,38.37
2019-01-23T20:18:32.888Z,38.98
2019-01-23T20:21:03.797Z,38.77
2019-01-23T20:23:35.905Z,38.77
2019-01-23T20:26:07.831Z,37.93
2019-01-23T20:28:41.038Z,38.36
2019-01-23T20:31:12.760Z,38.36
2019-01-23T20:33:44.895Z,39.32
2019-01-23T20:36:15.775Z,39.29
2019-01-23T20:38:46.784Z,39.29
2019-01-23T20:41:16.811Z,39.47
2019-01-23T20:46:37.784Z,39.09
2019-01-23T20:49:07.833Z,39.25
2019-01-23T20:51:37.949Z,38.86
2019-01-23T20:54:08.764Z,38.75
2019-01-23T20:56:38.985Z,38.77
2019-01-23T20:59:09.870Z,38.33
2019-01-23T21:01:39.904Z,38.76
2019-01-23T21:04:10.825Z,39.14
2019-01-23T21:06:42.834Z,38.58
2019-01-23T21:09:13.754Z,39.42
2019-01-23T21:11:43.758Z,38.91
2019-01-23T21:14:13.779Z,38.91
2019-01-23T21:16:44.714Z,39.03
2019-01-23T21:19:14.715Z,39.03
2019-01-23T21:21:44.737Z,39.30
2019-01-23T21:24:14.087Z,39.16
2019-01-23T21:30:26.736Z,39.03
2019-01-23T21:32:56.055Z,39.03
2019-01-23T21:35:26.345Z,39.23
2019-01-23T21:37:56.371Z,39.23
2019-01-23T21:40:31.900Z,38.96
2019-01-23T21:43:02.838Z,38.80
2019-01-23T21:45:35.783Z,38.80
2019-01-23T21:48:04.905Z,38.77
2019-01-23T21:50:33.936Z,37.57
2019-01-23T21:53:05.620Z,37.93
2019-01-23T21:55:35.095Z,37.93
2019-01-23T21:58:05.718Z,38.47
2019-01-23T22:00:39.790Z,37.93
2019-01-23T22:03:08.749Z,37.78
2019-01-23T22:05:37.708Z,37.74
2019-01-23T22:08:06.850Z,38.20
2019-01-23T22:10:35.807Z,37.72
2019-01-23T22:13:04.936Z,37.72
2019-01-23T22:15:34.467Z,37.45
2019-01-23T22:18:04.349Z,37.45
2019-01-23T22:20:34.754Z,37.54
2019-01-23T22:25:21.854Z,37.13
2019-01-23T22:28:17.370Z,37.43
2019-01-23T22:30:45.731Z,37.50
2019-01-23T22:33:14.932Z,39.07
2019-01-23T22:35:44.581Z,39.75
2019-01-23T22:40:54.698Z,38.44
2019-01-23T22:43:23.950Z,38.52
2019-01-23T22:45:51.835Z,37.77
2019-01-23T22:54:51.359Z,37.65
2019-01-23T22:57:19.311Z,37.78
2019-01-23T22:59:48.065Z,37.24
2019-01-23T23:02:17.063Z,37.42
2019-01-23T23:04:46.329Z,36.95
2019-01-23T23:07:15.592Z,36.69
2019-01-23T23:09:45.978Z,36.99
2019-01-23T23:12:15.482Z,37.48
2019-01-23T23:14:44.353Z,37.48
2019-01-23T23:17:12.857Z,37.48
2019-01-23T23:19:41.825Z,37.57
2019-01-23T23:22:10.680Z,37.57
2019-01-23T23:24:38.709Z,37.87
2019-01-23T23:27:06.785Z,37.79
2019-01-23T23:29:34.689Z,37.92
2019-01-23T23:32:02.363Z,37.74
2019-01-23T23:34:30.716Z,37.99
2019-01-23T23:47:48.371Z,37.87
2019-01-23T23:50:16.992Z,37.81
2019-01-23T23:52:45.809Z,37.80
2019-01-23T23:55:14.358Z,37.80
2019-01-23T23:57:42.958Z,37.85
